Time;durP1;ratioP1;P1;durP2;ratioP2;P2;SDS_P1;SDS_P2;PMS_P1;PMS_P2;Temp;Humidity;BMP_temperature;BMP_pressure;BME280_temperature;BME280_humidity;BME280_pressure;Samples;Min_cycle;Max_cycle;Signal;HPM_P1;HPM_P2
2022/04/27 00:01:52;;;;;;;3.58;1.65;;;7.10;99.90;;;;;;4917598;29;20054;-85
2022/04/27 00:04:17;;;;;;;3.70;1.35;;;7.80;99.90;;;;;;4918380;29;20047;-86
2022/04/27 00:06:44;;;;;;;3.05;1.35;;;7.10;99.90;;;;;;4917231;29;20069;-85
2022/04/27 00:09:11;;;;;;;1.52;0.90;;;7.10;99.90;;;;;;4917049;29;20063;-86
2022/04/27 00:11:38;;;;;;;1.73;1.20;;;7.00;99.90;;;;;;4918818;29;20383;-85
2022/04/27 00:14:03;;;;;;;3.42;1.40;;;7.10;99.90;;;;;;4932724;29;20520;-85
2022/04/27 00:16:30;;;;;;;3.85;1.17;;;7.70;99.90;;;;;;4918307;29;20138;-86
2022/04/27 00:18:55;;;;;;;2.42;1.25;;;7.20;99.90;;;;;;4918176;29;20465;-84
2022/04/27 00:21:21;;;;;;;1.80;1.25;;;8.00;99.90;;;;;;4918276;29;20044;-85
2022/04/27 00:23:47;;;;;;;2.17;1.10;;;7.20;99.90;;;;;;4918359;29;20044;-85
2022/04/27 00:26:13;;;;;;;3.08;1.25;;;8.10;99.90;;;;;;4932806;29;20127;-86
2022/04/27 00:28:39;;;;;;;3.83;1.23;;;7.30;99.90;;;;;;4916862;29;20059;-85
2022/04/27 00:31:04;;;;;;;1.98;1.20;;;7.90;99.90;;;;;;4916706;29;20055;-85
2022/04/27 00:33:32;;;;;;;1.75;1.25;;;8.00;99.90;;;;;;4932404;29;20047;-85
2022/04/27 00:35:58;;;;;;;1.67;1.15;;;7.30;99.90;;;;;;4916938;29;20056;-86
2022/04/27 00:38:24;;;;;;;2.10;1.20;;;7.70;99.90;;;;;;4916574;29;20111;-85
2022/04/27 00:40:50;;;;;;;3.08;1.17;;;8.00;99.90;;;;;;4917921;29;20119;-86
2022/04/27 00:43:33;;;;;;;4.93;1.25;;;8.00;99.90;;;;;;4918023;29;20502;-85
2022/04/27 00:46:00;;;;;;;5.45;1.20;;;7.50;99.90;;;;;;4917092;29;20048;-85
2022/04/27 00:48:26;;;;;;;2.05;1.23;;;8.10;99.90;;;;;;4916582;29;20044;-85
2022/04/27 00:50:52;;;;;;;3.50;1.00;;;7.30;99.90;;;;;;4917647;29;20036;-85
2022/04/27 00:53:18;;;;;;;3.17;1.30;;;8.00;99.90;;;;;;4932617;29;20051;-85
2022/04/27 00:55:44;;;;;;;3.17;1.42;;;7.70;99.90;;;;;;4916784;29;20418;-85
2022/04/27 00:58:14;;;;;;;3.05;1.92;;;8.00;99.90;;;;;;4916930;29;20467;-85
2022/04/27 01:00:40;;;;;;;5.05;1.63;;;7.40;99.90;;;;;;4932431;29;20100;-85
2022/04/27 01:03:06;;;;;;;2.63;1.10;;;8.40;99.90;;;;;;4917939;29;20083;-85
2022/04/27 01:05:32;;;;;;;2.67;1.65;;;8.30;99.90;;;;;;4918900;29;20052;-85
2022/04/27 01:08:00;;;;;;;2.13;1.30;;;7.70;99.90;;;;;;4918433;29;20418;-85
2022/04/27 01:10:27;;;;;;;2.72;1.45;;;7.40;99.90;;;;;;4916628;29;20051;-85
2022/04/27 01:12:55;;;;;;;3.00;1.33;;;7.50;99.90;;;;;;4916643;29;20072;-85
2022/04/27 01:15:36;;;;;;;3.13;1.40;;;7.50;99.90;;;;;;4916000;29;20052;-85
2022/04/27 01:18:03;;;;;;;2.75;1.20;;;7.70;99.90;;;;;;4917492;29;20084;-85
2022/04/27 01:20:44;;;;;;;5.32;1.65;;;7.50;99.90;;;;;;4917528;29;20131;-86
2022/04/27 01:23:14;;;;;;;2.95;1.50;;;7.60;99.90;;;;;;4917127;29;20409;-85
2022/04/27 01:25:55;;;;;;;3.13;1.20;;;8.00;99.90;;;;;;4915503;29;20047;-85
2022/04/27 01:28:25;;;;;;;1.98;1.00;;;7.60;99.90;;;;;;4917306;29;20119;-85
2022/04/27 01:31:01;;;;;;;3.17;1.10;;;7.60;99.90;;;;;;4916776;29;20043;-85
2022/04/27 01:33:30;;;;;;;3.55;1.80;;;7.60;99.90;;;;;;4915202;29;20059;-85
2022/04/27 01:35:58;;;;;;;3.22;1.30;;;7.60;99.90;;;;;;4916739;29;20043;-85
2022/04/27 01:38:24;;;;;;;5.63;1.63;;;8.50;99.90;;;;;;4915880;29;20052;-85
2022/04/27 01:40:54;;;;;;;4.15;1.65;;;7.70;99.90;;;;;;4915914;29;20397;-85
2022/04/27 01:43:24;;;;;;;5.65;1.73;;;6.80;99.90;;;;;;4915201;29;20056;-85
2022/04/27 01:45:53;;;;;;;5.20;1.70;;;8.40;99.90;;;;;;4915424;29;20364;-85
2022/04/27 01:48:19;;;;;;;3.70;1.80;;;7.70;99.90;;;;;;4916964;29;20040;-85
2022/04/27 01:50:45;;;;;;;2.35;1.35;;;8.00;99.90;;;;;;4916256;29;20123;-85
2022/04/27 01:55:55;;;;;;;3.97;1.40;;;7.80;99.90;;;;;;4914994;29;20059;-85
2022/04/27 01:58:22;;;;;;;2.25;1.20;;;7.80;99.90;;;;;;4916701;29;20051;-85
2022/04/27 02:00:48;;;;;;;1.35;0.85;;;7.90;99.90;;;;;;4916099;29;20040;-85
2022/04/27 02:03:18;;;;;;;1.67;0.60;;;8.60;99.90;;;;;;4916758;29;20091;-85
2022/04/27 02:05:44;;;;;;;1.08;0.63;;;7.90;99.90;;;;;;4914459;29;20126;-85
2022/04/27 02:08:10;;;;;;;1.15;0.80;;;7.80;99.90;;;;;;4916616;29;20043;-85
2022/04/27 02:10:36;;;;;;;1.45;1.00;;;7.80;99.90;;;;;;4916512;29;20036;-85
2022/04/27 02:13:11;;;;;;;3.67;0.77;;;8.00;99.90;;;;;;4916146;29;20055;-85
2022/04/27 02:15:38;;;;;;;1.25;0.70;;;7.90;99.90;;;;;;4916511;29;20143;-85
2022/04/27 02:18:04;;;;;;;1.33;0.70;;;7.80;99.90;;;;;;4916277;29;20056;-85
2022/04/27 02:20:30;;;;;;;1.48;1.20;;;8.00;99.90;;;;;;4916875;29;20048;-85
2022/04/27 02:22:56;;;;;;;2.38;0.80;;;7.80;99.90;;;;;;4916338;29;20092;-85
2022/04/27 02:25:22;;;;;;;3.22;1.20;;;7.80;99.90;;;;;;4915499;29;20052;-85
2022/04/27 02:27:49;;;;;;;1.60;1.02;;;7.90;99.90;;;;;;4916167;29;20462;-86
2022/04/27 02:30:16;;;;;;;3.22;0.90;;;8.40;99.90;;;;;;4914920;29;20490;-85
2022/04/27 02:32:42;;;;;;;2.13;1.10;;;7.90;99.90;;;;;;4914999;29;20123;-85
2022/04/27 02:35:09;;;;;;;3.38;1.35;;;8.60;99.90;;;;;;4914621;29;20052;-85
2022/04/27 02:37:36;;;;;;;2.00;0.90;;;7.90;99.90;;;;;;4915823;29;20106;-85
2022/04/27 02:40:03;;;;;;;1.48;0.77;;;7.90;99.90;;;;;;4914814;29;20055;-85
2022/04/27 02:42:29;;;;;;;2.53;0.70;;;7.90;99.90;;;;;;4923725;29;20485;-86
2022/04/27 02:44:58;;;;;;;0.68;0.68;;;7.90;99.90;;;;;;4916011;29;20040;-86
2022/04/27 02:47:24;;;;;;;1.35;0.70;;;8.00;99.90;;;;;;4915483;29;20052;-86
2022/04/27 02:52:37;;;;;;;4.00;1.42;;;7.90;99.90;;;;;;4915826;29;20051;-85
2022/04/27 02:55:03;;;;;;;2.63;1.00;;;8.00;99.90;;;;;;4914715;29;20179;-85
2022/04/27 02:57:29;;;;;;;3.22;0.80;;;8.00;99.90;;;;;;4914240;29;20044;-86
2022/04/27 02:59:55;;;;;;;2.25;0.80;;;7.90;99.90;;;;;;4915927;29;20052;-86
2022/04/27 03:02:20;;;;;;;2.05;0.90;;;8.90;99.90;;;;;;4914418;29;20041;-86
2022/04/27 03:04:46;;;;;;;2.72;0.98;;;8.40;99.90;;;;;;4915993;29;20040;-85
2022/04/27 03:07:12;;;;;;;2.25;0.73;;;8.00;99.90;;;;;;4915071;29;20192;-86
2022/04/27 03:09:38;;;;;;;1.35;0.73;;;8.50;99.90;;;;;;4914534;29;20048;-86
2022/04/27 03:12:04;;;;;;;1.63;0.70;;;8.10;99.90;;;;;;4914959;29;20052;-86
2022/04/27 03:14:30;;;;;;;1.13;0.70;;;7.90;99.90;;;;;;4915445;29;20056;-86
2022/04/27 03:16:56;;;;;;;1.20;0.68;;;7.90;99.90;;;;;;4919321;29;20047;-86
2022/04/27 03:19:22;;;;;;;0.82;0.73;;;6.90;99.90;;;;;;4917563;29;20056;-85
2022/04/27 03:21:48;;;;;;;1.88;1.00;;;8.00;99.90;;;;;;4902560;29;20052;-85
2022/04/27 03:24:14;;;;;;;1.42;0.82;;;7.90;99.90;;;;;;4918453;29;20496;-86
2022/04/27 03:26:40;;;;;;;2.15;0.73;;;8.80;99.90;;;;;;4917806;29;20055;-85
2022/04/27 03:29:06;;;;;;;1.17;0.73;;;8.20;99.90;;;;;;4919067;29;20044;-85
2022/04/27 03:31:35;;;;;;;1.02;0.73;;;8.50;99.90;;;;;;4918739;29;20215;-86
2022/04/27 03:34:01;;;;;;;0.93;0.63;;;8.00;99.90;;;;;;4904305;29;20075;-86
2022/04/27 03:36:27;;;;;;;1.13;0.70;;;7.60;99.90;;;;;;4919629;29;20461;-86
2022/04/27 03:38:52;;;;;;;0.73;0.50;;;7.90;99.90;;;;;;4918939;29;20071;-86
2022/04/27 03:41:22;;;;;;;2.35;0.70;;;8.40;99.90;;;;;;4919252;29;20040;-86
2022/04/27 03:43:49;;;;;;;2.60;0.75;;;8.30;99.90;;;;;;4917848;29;20076;-85
2022/04/27 03:46:15;;;;;;;4.07;1.00;;;7.90;99.90;;;;;;4902030;29;20501;-86
2022/04/27 03:48:41;;;;;;;3.58;1.30;;;8.10;99.90;;;;;;4917463;29;20090;-84
2022/04/27 03:51:07;;;;;;;2.65;1.00;;;7.30;99.90;;;;;;4918601;29;20044;-85
2022/04/27 03:53:33;;;;;;;2.85;1.35;;;8.80;99.90;;;;;;4918509;29;20044;-85
2022/04/27 03:55:59;;;;;;;1.60;1.00;;;8.60;99.90;;;;;;4918116;29;20040;-86
2022/04/27 03:58:25;;;;;;;5.80;1.30;;;8.50;99.90;;;;;;4917530;29;20481;-85
2022/04/27 04:00:50;;;;;;;2.30;0.98;;;8.10;99.90;;;;;;4918222;29;20489;-85
2022/04/27 04:03:16;;;;;;;3.25;1.30;;;8.10;99.90;;;;;;4918734;29;20090;-85
2022/04/27 04:05:42;;;;;;;1.33;1.17;;;8.10;99.90;;;;;;4918565;29;20035;-86
2022/04/27 04:08:08;;;;;;;3.70;1.35;;;7.10;99.90;;;;;;4917137;29;20067;-85
2022/04/27 04:10:34;;;;;;;3.28;1.52;;;8.00;99.90;;;;;;4918164;29;20048;-85
2022/04/27 04:13:00;;;;;;;1.75;0.88;;;8.30;99.90;;;;;;4917789;29;20493;-85
2022/04/27 04:15:26;;;;;;;3.45;1.10;;;8.10;99.90;;;;;;4917125;29;20048;-85
2022/04/27 04:17:52;;;;;;;1.25;0.70;;;8.00;99.90;;;;;;4917993;29;20504;-86
2022/04/27 04:20:18;;;;;;;4.75;1.10;;;8.80;99.90;;;;;;4917023;29;20040;-85
2022/04/27 04:22:45;;;;;;;6.95;1.52;;;8.10;99.90;;;;;;4917842;29;20040;-86
2022/04/27 04:30:41;;;;;;;2.20;1.30;;;8.40;99.90;;;;;;4918384;29;20052;-85
2022/04/27 04:33:07;;;;;;;2.38;0.98;;;7.90;99.90;;;;;;4916419;29;20041;-85
2022/04/27 04:35:35;;;;;;;3.25;0.95;;;8.00;99.90;;;;;;4917886;29;20469;-86
2022/04/27 04:38:01;;;;;;;4.82;1.50;;;8.00;99.90;;;;;;4918277;29;20040;-85
2022/04/27 04:40:27;;;;;;;1.45;1.23;;;9.00;99.90;;;;;;4918056;29;20088;-85
2022/04/27 04:42:53;;;;;;;1.48;1.05;;;8.10;99.90;;;;;;4916134;29;20540;-85
2022/04/27 04:45:19;;;;;;;4.63;1.48;;;8.00;99.90;;;;;;4916845;29;20108;-85
2022/04/27 04:47:45;;;;;;;2.67;1.27;;;8.10;99.90;;;;;;4917850;29;20043;-85
2022/04/27 04:50:12;;;;;;;3.53;1.38;;;8.90;99.90;;;;;;4916703;29;20379;-85
2022/04/27 04:52:38;;;;;;;1.30;0.80;;;8.90;99.90;;;;;;4918131;29;20446;-86
2022/04/27 04:55:04;;;;;;;2.20;0.80;;;8.10;99.90;;;;;;4915928;29;20139;-85
2022/04/27 04:57:30;;;;;;;3.97;1.52;;;8.10;99.90;;;;;;4916585;29;20052;-85
2022/04/27 04:59:58;;;;;;;2.88;1.05;;;8.90;99.90;;;;;;4916080;29;20044;-85
2022/04/27 05:02:24;;;;;;;1.08;0.60;;;8.10;99.90;;;;;;4916802;29;20063;-85
2022/04/27 05:04:51;;;;;;;2.67;0.90;;;8.10;99.90;;;;;;4915884;29;20048;-84
2022/04/27 05:07:20;;;;;;;1.33;0.80;;;8.10;99.90;;;;;;4917165;29;20401;-85
2022/04/27 05:09:46;;;;;;;1.05;0.60;;;8.70;99.90;;;;;;4917357;29;20517;-85
2022/04/27 05:12:11;;;;;;;0.90;0.60;;;8.80;99.90;;;;;;4917365;29;20044;-86
2022/04/27 05:14:37;;;;;;;0.60;0.50;;;8.40;99.90;;;;;;4915329;29;20449;-86
2022/04/27 05:17:03;;;;;;;1.88;0.60;;;8.10;99.90;;;;;;4917018;29;20048;-86
2022/04/27 05:19:29;;;;;;;0.75;0.50;;;8.10;99.90;;;;;;4916073;29;20044;-86
2022/04/27 05:21:55;;;;;;;0.57;0.50;;;8.90;99.90;;;;;;4916054;29;20401;-86
2022/04/27 05:24:21;;;;;;;0.73;0.50;;;6.90;99.90;;;;;;4915965;29;20052;-85
2022/04/27 05:26:46;;;;;;;1.13;0.75;;;8.30;99.90;;;;;;4916077;29;20044;-86
2022/04/27 05:31:59;;;;;;;1.27;0.77;;;8.30;99.90;;;;;;4915966;29;20059;-85
2022/04/27 05:34:26;;;;;;;1.40;0.70;;;8.30;99.90;;;;;;4915869;29;20183;-86
2022/04/27 05:36:53;;;;;;;0.90;0.57;;;9.00;99.90;;;;;;4931145;29;20040;-86
2022/04/27 05:39:21;;;;;;;0.85;0.55;;;9.10;99.90;;;;;;4914930;29;20127;-85
2022/04/27 05:41:50;;;;;;;0.85;0.68;;;8.70;99.90;;;;;;4915499;29;20051;-85
2022/04/27 05:44:22;;;;;;;1.02;0.60;;;8.50;99.90;;;;;;4915711;29;20500;-85
2022/04/27 05:46:56;;;;;;;1.55;1.33;;;8.90;99.90;;;;;;4916559;29;20052;-85
2022/04/27 05:49:22;;;;;;;1.33;0.80;;;8.50;99.90;;;;;;4916908;29;20048;-85
2022/04/27 05:51:48;;;;;;;1.63;0.82;;;8.50;99.90;;;;;;4915856;29;20075;-85
2022/04/27 05:54:14;;;;;;;3.22;0.68;;;8.50;99.90;;;;;;4915835;29;20056;-85
2022/04/27 05:56:41;;;;;;;1.45;0.60;;;8.50;99.90;;;;;;4915971;29;20064;-85
2022/04/27 05:59:10;;;;;;;0.98;0.68;;;8.60;99.90;;;;;;4922521;29;20058;-85
2022/04/27 06:01:36;;;;;;;2.08;0.73;;;8.60;99.90;;;;;;4919086;29;20048;-85
2022/04/27 06:04:02;;;;;;;1.65;0.70;;;8.60;99.90;;;;;;4915987;29;20106;-85
2022/04/27 06:06:28;;;;;;;1.83;0.80;;;8.70;99.90;;;;;;4915867;29;20454;-86
2022/04/27 06:08:54;;;;;;;0.90;0.60;;;9.40;99.90;;;;;;4915263;29;20067;-85
2022/04/27 06:11:20;;;;;;;1.58;0.73;;;9.10;99.90;;;;;;4916520;29;20040;-85
2022/04/27 06:13:47;;;;;;;1.00;0.70;;;8.70;99.90;;;;;;4915369;29;20043;-85
2022/04/27 06:16:13;;;;;;;1.33;0.73;;;8.80;99.90;;;;;;4914951;29;20127;-85
2022/04/27 06:18:40;;;;;;;1.70;0.70;;;8.80;99.90;;;;;;4916686;29;20052;-86
2022/04/27 06:21:10;;;;;;;0.85;0.70;;;9.60;99.90;;;;;;4915073;29;20126;-85
2022/04/27 06:23:38;;;;;;;1.15;0.77;;;8.90;99.90;;;;;;4915564;29;20048;-86
2022/04/27 06:26:06;;;;;;;1.02;0.77;;;8.90;99.90;;;;;;4916416;29;20054;-84
2022/04/27 06:28:32;;;;;;;2.67;0.85;;;8.90;99.90;;;;;;4916746;29;20044;-85
2022/04/27 06:30:58;;;;;;;1.23;0.60;;;9.00;99.90;;;;;;4915112;29;20059;-84
2022/04/27 06:33:24;;;;;;;1.08;0.60;;;9.70;99.90;;;;;;4915258;29;20131;-84
2022/04/27 06:35:53;;;;;;;1.08;0.70;;;9.00;99.90;;;;;;4916069;29;20123;-85
2022/04/27 06:38:19;;;;;;;1.20;0.73;;;9.00;99.90;;;;;;4914537;29;20051;-85
2022/04/27 06:40:45;;;;;;;1.23;0.65;;;9.00;99.90;;;;;;4914802;29;20044;-85
2022/04/27 06:43:10;;;;;;;1.83;0.90;;;9.70;99.90;;;;;;4914780;29;20055;-83
2022/04/27 06:45:36;;;;;;;1.55;0.85;;;9.20;99.90;;;;;;4915476;29;20406;-85
2022/04/27 06:48:05;;;;;;;1.63;0.90;;;9.60;99.90;;;;;;4913833;29;20055;-85
2022/04/27 06:50:31;;;;;;;1.25;0.82;;;9.20;99.90;;;;;;4913871;29;20048;-85
2022/04/27 06:53:00;;;;;;;1.85;1.20;;;9.30;99.90;;;;;;4914545;29;20099;-86
2022/04/27 06:55:28;;;;;;;2.00;0.80;;;9.20;99.90;;;;;;4926387;29;20454;-87
2022/04/27 06:57:54;;;;;;;1.25;0.85;;;9.30;99.90;;;;;;4930526;29;20056;-85
2022/04/27 07:00:25;;;;;;;2.65;0.80;;;9.40;99.90;;;;;;4930455;29;20103;-86
2022/04/27 07:02:52;;;;;;;6.18;1.13;;;9.30;99.90;;;;;;4915296;29;20036;-86
2022/04/27 07:05:20;;;;;;;1.40;0.80;;;10.10;99.90;;;;;;4914624;29;20131;-86
2022/04/27 07:07:54;;;;;;;0.88;0.80;;;9.70;99.90;;;;;;4916511;29;20059;-89
2022/04/27 07:10:20;;;;;;;0.93;0.75;;;10.00;99.90;;;;;;4899222;29;20047;-84
2022/04/27 07:12:47;;;;;;;1.33;0.75;;;9.40;99.90;;;;;;4914238;29;20489;-88
2022/04/27 07:15:13;;;;;;;1.35;0.70;;;9.50;99.90;;;;;;4915681;29;20134;-84
2022/04/27 07:17:38;;;;;;;1.95;0.80;;;9.70;99.90;;;;;;4915378;29;20127;-86
2022/04/27 07:20:05;;;;;;;1.95;0.90;;;9.30;99.90;;;;;;5015187;23;20049;-86
2022/04/27 07:22:31;;;;;;;1.10;0.68;;;9.60;99.90;;;;;;5051854;28;20041;-85
2022/04/27 07:24:57;;;;;;;1.95;0.70;;;9.60;99.90;;;;;;5052143;28;20044;-84
2022/04/27 07:27:23;;;;;;;5.28;1.08;;;9.90;99.90;;;;;;5051477;28;20060;-83
2022/04/27 07:29:49;;;;;;;4.93;0.70;;;9.90;99.90;;;;;;5051016;28;20103;-83
2022/04/27 07:32:14;;;;;;;2.92;1.27;;;10.00;99.90;;;;;;5033651;28;20444;-84
2022/04/27 07:34:40;;;;;;;0.70;0.70;;;10.10;99.90;;;;;;5051965;28;20103;-83
2022/04/27 07:37:06;;;;;;;2.35;0.93;;;10.20;99.90;;;;;;5051832;28;20049;-83
2022/04/27 07:39:32;;;;;;;2.08;0.80;;;9.90;99.90;;;;;;5033636;28;20398;-84
2022/04/27 07:41:58;;;;;;;1.45;0.70;;;9.80;99.90;;;;;;5051770;28;20128;-84
2022/04/27 07:44:23;;;;;;;1.30;0.75;;;9.80;99.90;;;;;;5051245;28;20128;-84
2022/04/27 07:46:50;;;;;;;1.02;0.68;;;9.90;99.90;;;;;;5051579;28;20037;-83
2022/04/27 07:49:16;;;;;;;1.95;0.75;;;10.50;99.90;;;;;;5051530;28;20120;-83
2022/04/27 07:51:42;;;;;;;1.75;0.70;;;9.90;99.90;;;;;;5051303;28;20043;-84
2022/04/27 07:54:08;;;;;;;2.47;0.80;;;10.20;99.90;;;;;;5051459;28;20041;-84
2022/04/27 07:56:33;;;;;;;1.50;0.80;;;10.50;99.90;;;;;;5051790;28;20048;-85
2022/04/27 07:58:59;;;;;;;3.65;1.00;;;10.00;99.90;;;;;;5050927;28;20091;-85
2022/04/27 08:01:25;;;;;;;4.15;0.80;;;10.10;99.90;;;;;;5033429;28;20052;-84
2022/04/27 08:03:50;;;;;;;6.63;1.38;;;10.20;99.90;;;;;;5036833;28;20132;-85
2022/04/27 08:06:16;;;;;;;5.13;1.00;;;10.30;99.90;;;;;;5054868;28;20087;-84
2022/04/27 08:08:42;;;;;;;3.25;1.10;;;10.30;99.90;;;;;;5055147;28;20044;-84
2022/04/27 08:11:09;;;;;;;4.15;0.80;;;11.10;99.90;;;;;;5037068;28;20418;-84
2022/04/27 08:13:35;;;;;;;4.45;0.80;;;10.30;99.90;;;;;;5036576;28;20045;-83
2022/04/27 08:16:01;;;;;;;6.80;1.27;;;10.30;99.90;;;;;;5054786;28;20049;-86
2022/04/27 08:18:27;;;;;;;3.70;1.33;;;11.10;99.90;;;;;;5035729;28;20178;-88
2022/04/27 08:23:40;;;;;;;7.25;1.10;;;10.80;99.90;;;;;;5056088;28;20051;-86
2022/04/27 08:26:07;;;;;;;3.10;1.00;;;10.40;99.90;;;;;;5042689;28;20045;-85
2022/04/27 08:28:34;;;;;;;2.30;0.82;;;10.40;99.90;;;;;;5044759;28;20040;-83
2022/04/27 08:31:00;;;;;;;2.92;0.70;;;10.40;99.90;;;;;;5037840;28;20080;-84
2022/04/27 08:33:27;;;;;;;2.83;0.80;;;10.40;99.90;;;;;;5053286;28;20074;-85
2022/04/27 08:35:57;;;;;;;4.55;0.90;;;10.40;99.90;;;;;;5036866;28;20377;-87
2022/04/27 08:38:23;;;;;;;3.80;0.90;;;10.50;99.90;;;;;;5036596;28;20083;-86
2022/04/27 08:40:54;;;;;;;3.35;0.73;;;10.60;99.90;;;;;;5036176;28;20469;-87
2022/04/27 08:43:21;;;;;;;3.75;1.00;;;10.30;99.90;;;;;;5036157;28;20080;-88
2022/04/27 08:45:47;;;;;;;4.32;0.82;;;10.40;99.90;;;;;;5036381;28;20110;-85
2022/04/27 08:48:17;;;;;;;5.53;1.05;;;10.40;99.90;;;;;;5049086;28;20044;-85
2022/04/27 08:51:44;;;;;;;3.20;0.70;;;10.40;99.90;;;;;;5054443;28;20044;-87
2022/04/27 08:54:10;;;;;;;3.55;0.77;;;10.40;99.90;;;;;;4972563;28;20548;-87
2022/04/27 08:56:35;;;;;;;5.07;1.17;;;10.50;99.90;;;;;;4956426;28;20054;-86
2022/04/27 08:59:02;;;;;;;4.55;0.80;;;10.90;99.90;;;;;;4972171;28;20059;-86
2022/04/27 09:01:28;;;;;;;2.55;0.60;;;10.50;99.90;;;;;;4956997;28;20046;-85
2022/04/27 09:04:14;;;;;;;5.00;0.77;;;10.50;99.90;;;;;;4972662;28;20085;-86
2022/04/27 09:06:41;;;;;;;5.57;0.80;;;10.60;99.90;;;;;;4956345;28;20046;-85
2022/04/27 09:09:13;;;;;;;2.20;0.65;;;10.70;99.90;;;;;;4972951;28;20093;-85
2022/04/27 09:11:39;;;;;;;4.03;0.80;;;10.70;99.90;;;;;;4972912;28;20063;-86
2022/04/27 09:14:07;;;;;;;5.50;1.35;;;10.80;99.90;;;;;;4956893;28;20089;-86
2022/04/27 09:22:07;;;;;;;7.88;0.70;;;11.00;99.90;;;;;;4956719;28;20133;-85
2022/04/27 09:24:52;;;;;;;7.53;1.27;;;10.90;99.90;;;;;;4972878;28;20091;-84
2022/04/27 09:27:22;;;;;;;3.95;0.80;;;11.40;99.90;;;;;;4940422;28;20082;-84
2022/04/27 09:30:02;;;;;;;7.95;1.08;;;11.10;99.90;;;;;;4959165;28;20039;-85
2022/04/27 09:32:29;;;;;;;2.70;0.65;;;11.10;99.90;;;;;;5035480;28;20037;-84
2022/04/27 09:34:56;;;;;;;3.83;0.98;;;11.00;99.90;;;;;;5035120;28;20548;-88
2022/04/27 09:37:30;;;;;;;4.20;0.90;;;11.00;99.90;;;;;;5053237;28;20052;-84
2022/04/27 09:40:08;;;;;;;6.67;0.80;;;11.00;99.90;;;;;;5052630;28;20055;-84
2022/04/27 09:42:36;;;;;;;5.95;1.15;;;11.10;99.90;;;;;;5053398;28;20295;-83
2022/04/27 09:45:17;;;;;;;6.35;0.90;;;11.00;99.90;;;;;;5034978;28;20041;-84
2022/04/27 09:47:58;;;;;;;3.72;0.90;;;11.00;99.90;;;;;;5052703;28;20036;-84
2022/04/27 09:50:24;;;;;;;4.50;0.88;;;11.00;99.90;;;;;;5034959;28;20389;-85
2022/04/27 09:52:50;;;;;;;3.53;0.60;;;11.00;99.90;;;;;;5035014;28;20041;-84
2022/04/27 09:55:16;;;;;;;5.75;1.15;;;11.10;99.90;;;;;;5052910;28;20045;-85
2022/04/27 09:57:42;;;;;;;6.25;0.90;;;11.00;99.90;;;;;;5034988;28;20115;-84
2022/04/27 10:00:11;;;;;;;3.83;0.93;;;11.20;99.90;;;;;;5052123;28;20401;-84
2022/04/27 10:02:43;;;;;;;3.50;0.60;;;11.10;99.90;;;;;;5034947;28;20090;-84
2022/04/27 10:05:09;;;;;;;3.08;0.90;;;11.10;99.90;;;;;;5052458;28;20594;-84
2022/04/27 10:07:36;;;;;;;4.95;0.80;;;11.10;99.90;;;;;;5052432;28;20052;-85
2022/04/27 10:10:19;;;;;;;4.43;0.80;;;11.10;99.90;;;;;;5052801;28;20045;-86
2022/04/27 10:12:48;;;;;;;5.40;0.90;;;11.20;99.90;;;;;;5029198;28;20115;-84
2022/04/27 10:23:15;;;;;;;2.35;0.55;;;11.60;99.90;;;;;;5031254;28;20059;-84
2022/04/27 10:25:41;;;;;;;3.03;0.65;;;11.50;99.90;;;;;;5051393;28;20119;-86
2022/04/27 10:28:22;;;;;;;3.78;0.88;;;11.40;99.90;;;;;;5034537;28;20059;-85
2022/04/27 10:30:48;;;;;;;3.55;0.77;;;11.40;99.90;;;;;;5034701;28;20049;-89
2022/04/27 10:33:41;;;;;;;4.10;0.70;;;11.70;99.90;;;;;;5051164;28;20120;-86
2022/04/27 10:36:22;;;;;;;6.97;1.30;;;11.70;99.90;;;;;;5029777;28;20057;-85
2022/04/27 10:39:09;;;;;;;4.88;0.80;;;11.70;99.90;;;;;;5018256;28;20489;-84
2022/04/27 10:41:35;;;;;;;3.35;0.70;;;11.60;99.90;;;;;;5052907;28;20476;-85
2022/04/27 10:44:01;;;;;;;8.02;2.85;;;11.50;99.90;;;;;;5052660;28;20098;-85
2022/04/27 10:46:43;;;;;;;5.78;0.95;;;11.60;99.90;;;;;;5052770;28;20044;-85
2022/04/27 10:49:28;;;;;;;6.38;1.65;;;11.50;99.90;;;;;;5052451;28;20044;-85
2022/04/27 10:52:03;;;;;;;4.20;1.00;;;11.70;99.90;;;;;;5052809;28;20063;-83
2022/04/27 10:54:38;;;;;;;7.05;0.88;;;11.80;99.90;;;;;;5034786;28;20101;-84
2022/04/27 10:57:18;;;;;;;10.68;1.80;;;11.80;99.90;;;;;;5034973;28;20439;-84
2022/04/27 10:59:56;;;;;;;4.45;1.02;;;11.80;99.90;;;;;;5035050;28;20355;-83
2022/04/27 11:02:36;;;;;;;4.50;1.00;;;11.70;99.90;;;;;;5036088;28;20049;-84
2022/04/27 11:05:10;;;;;;;2.08;0.70;;;11.70;99.90;;;;;;5052833;28;20495;-85
2022/04/27 11:07:48;;;;;;;8.17;0.90;;;12.20;99.90;;;;;;5052555;28;20041;-84
2022/04/27 11:10:17;;;;;;;2.53;0.60;;;12.00;99.90;;;;;;5052406;28;20048;-84
2022/04/27 11:12:46;;;;;;;8.75;1.15;;;11.90;99.90;;;;;;5052466;28;20080;-84
2022/04/27 11:15:21;;;;;;;8.77;1.33;;;12.00;99.90;;;;;;5052580;28;20094;-84
2022/04/27 11:17:59;;;;;;;4.05;1.05;;;12.60;99.90;;;;;;5052036;28;20045;-84
2022/04/27 11:20:25;;;;;;;4.88;0.70;;;12.10;99.90;;;;;;5034722;28;20057;-84
2022/04/27 11:22:51;;;;;;;8.10;1.23;;;12.10;99.90;;;;;;5034319;28;20064;-84
2022/04/27 11:25:28;;;;;;;7.50;0.90;;;12.20;99.90;;;;;;5052204;28;20098;-84
2022/04/27 11:27:55;;;;;;;8.70;1.42;;;12.20;99.90;;;;;;5052366;28;20060;-84
2022/04/27 11:30:22;;;;;;;2.13;0.70;;;12.30;99.90;;;;;;5052133;28;20179;-84
2022/04/27 11:32:48;;;;;;;5.20;0.95;;;12.20;99.90;;;;;;5052091;28;20049;-84
2022/04/27 11:35:16;;;;;;;6.82;1.10;;;12.30;99.90;;;;;;5034586;28;20071;-84
2022/04/27 11:37:42;;;;;;;6.10;1.10;;;12.30;99.90;;;;;;5053632;28;20135;-84
2022/04/27 11:40:14;;;;;;;5.80;1.17;;;12.30;99.90;;;;;;5037920;28;20051;-84
2022/04/27 11:42:48;;;;;;;2.97;0.90;;;12.50;99.90;;;;;;5036698;28;20115;-86
2022/04/27 11:45:19;;;;;;;5.13;1.00;;;12.30;99.90;;;;;;5037407;28;20115;-85
2022/04/27 11:47:56;;;;;;;2.67;0.75;;;12.20;99.90;;;;;;5037443;28;20284;-83
2022/04/27 11:50:21;;;;;;;3.22;0.90;;;12.20;99.90;;;;;;5037878;28;20056;-85
2022/04/27 11:53:13;;;;;;;7.72;0.80;;;12.40;99.90;;;;;;5038203;28;20037;-86
2022/04/27 11:55:45;;;;;;;4.05;1.10;;;12.50;99.90;;;;;;5055446;28;20045;-86
2022/04/27 11:58:23;;;;;;;4.68;0.90;;;12.50;99.90;;;;;;5055423;28;20078;-86
2022/04/27 12:00:53;;;;;;;4.80;0.82;;;12.60;99.90;;;;;;5055298;28;20049;-85
2022/04/27 12:03:19;;;;;;;3.22;0.82;;;12.50;99.90;;;;;;5037813;28;20094;-85
2022/04/27 12:05:50;;;;;;;3.63;0.82;;;12.60;99.90;;;;;;5037558;28;20606;-86
2022/04/27 12:08:20;;;;;;;2.22;0.90;;;12.70;99.90;;;;;;5037800;28;20078;-85
2022/04/27 12:10:46;;;;;;;3.85;0.88;;;12.70;99.90;;;;;;5036779;28;20489;-85
2022/04/27 12:13:23;;;;;;;6.35;1.23;;;13.00;99.90;;;;;;5054721;28;20056;-85
2022/04/27 12:15:54;;;;;;;5.22;1.05;;;12.90;99.90;;;;;;5036808;28;20107;-84
2022/04/27 12:18:24;;;;;;;6.75;1.00;;;13.00;99.90;;;;;;5036199;28;20044;-86
2022/04/27 12:20:50;;;;;;;4.38;0.80;;;12.80;99.90;;;;;;5028412;28;20041;-84
2022/04/27 12:23:20;;;;;;;3.95;1.08;;;13.00;99.90;;;;;;5053401;28;20061;-85
2022/04/27 12:26:01;;;;;;;7.45;0.80;;;12.50;99.90;;;;;;5036332;28;20057;-85
2022/04/27 12:28:33;;;;;;;3.92;0.90;;;12.80;99.90;;;;;;5033217;28;20045;-85
2022/04/27 12:31:07;;;;;;;5.05;0.80;;;13.00;99.90;;;;;;5049457;28;20099;-85
2022/04/27 12:33:45;;;;;;;6.75;1.08;;;12.80;99.90;;;;;;5034919;28;20146;-86
2022/04/27 12:39:03;;;;;;;4.13;0.60;;;12.90;99.90;;;;;;5047424;28;20054;-86
2022/04/27 12:41:47;;;;;;;6.57;1.00;;;12.80;99.90;;;;;;5034429;28;20053;-91
2022/04/27 12:55:16;;;;;;;3.42;0.70;;;12.40;99.90;;;;;;5042471;28;20056;-86
2022/04/27 12:57:50;;;;;;;6.65;1.10;;;12.50;99.90;;;;;;5020180;28;20041;-87
2022/04/27 13:00:22;;;;;;;4.45;0.60;;;12.50;99.90;;;;;;5027652;28;20045;-88
2022/04/27 13:02:48;;;;;;;3.65;0.90;;;12.60;99.90;;;;;;5008173;28;20052;-86
2022/04/27 13:05:14;;;;;;;3.55;0.88;;;12.60;99.90;;;;;;5019276;28;20044;-87
2022/04/27 13:07:40;;;;;;;4.40;0.73;;;12.60;99.90;;;;;;5027037;28;20503;-85
2022/04/27 13:12:54;;;;;;;5.33;0.70;;;13.00;99.90;;;;;;5039143;28;20044;-87
2022/04/27 13:15:21;;;;;;;6.20;1.13;;;13.00;99.90;;;;;;5034899;28;20182;-85
2022/04/27 13:17:47;;;;;;;6.25;0.93;;;13.00;99.90;;;;;;5030575;28;20049;-86
2022/04/27 13:20:13;;;;;;;7.50;1.23;;;13.20;99.90;;;;;;5040587;28;20049;-85
2022/04/27 13:22:41;;;;;;;4.85;1.27;;;13.70;99.60;;;;;;5033508;28;20045;-88
2022/04/27 13:25:13;;;;;;;8.85;1.38;;;13.20;99.90;;;;;;5034565;28;20179;-87
2022/04/27 13:27:57;;;;;;;5.18;1.00;;;13.10;99.60;;;;;;5030377;28;20401;-94
2022/04/27 13:30:26;;;;;;;4.82;1.30;;;13.30;99.90;;;;;;5026460;28;20084;-88
2022/04/27 13:32:52;;;;;;;5.93;0.90;;;13.20;99.10;;;;;;5044125;28;20122;-88
2022/04/27 13:35:18;;;;;;;8.05;0.95;;;13.10;99.50;;;;;;5035189;28;20056;-85
2022/04/27 13:37:44;;;;;;;4.85;1.98;;;12.90;99.90;;;;;;5043834;28;20182;-86
2022/04/27 13:40:10;;;;;;;7.35;0.80;;;12.90;99.90;;;;;;5029924;28;20045;-88
2022/04/27 13:42:39;;;;;;;3.15;1.00;;;12.80;99.90;;;;;;5033816;28;20046;-85
2022/04/27 13:45:06;;;;;;;5.80;0.88;;;12.80;99.90;;;;;;5028702;28;20527;-85
2022/04/27 13:47:33;;;;;;;5.60;0.70;;;12.80;99.90;;;;;;5034521;28;20474;-85